sensor_id;sensor_type;location;lat;lon;timestamp;pressure;altitude;pressure_sealevel;temperature;humidity
56876;BME280;42622;49.972;8.452;2023-04-02T00:04:12;99781.34;;;8.52;100.00
56876;BME280;42622;49.972;8.452;2023-04-02T00:07:16;99781.34;;;8.52;100.00
56876;BME280;42622;49.972;8.452;2023-04-02T00:09:56;99783.97;;;8.52;100.00
56876;BME280;42622;49.972;8.452;2023-04-02T00:12:24;99782.28;;;8.51;100.00
56876;BME280;42622;49.972;8.452;2023-04-02T00:14:53;99784.81;;;8.53;100.00
56876;BME280;42622;49.972;8.452;2023-04-02T00:17:23;99800.63;;;8.53;100.00
56876;BME280;42622;49.972;8.452;2023-04-02T00:20:03;99799.78;;;8.52;100.00
56876;BME280;42622;49.972;8.452;2023-04-02T00:22:32;99803.34;;;8.51;100.00
56876;BME280;42622;49.972;8.452;2023-04-02T00:25:06;99808.63;;;8.51;100.00
56876;BME280;42622;49.972;8.452;2023-04-02T00:27:38;99808.53;;;8.53;100.00
56876;BME280;42622;49.972;8.452;2023-04-02T00:30:06;99813.03;;;8.51;100.00
56876;BME280;42622;49.972;8.452;2023-04-02T00:32:35;99814.84;;;8.50;100.00
56876;BME280;42622;49.972;8.452;2023-04-02T00:35:02;99815.78;;;8.49;100.00
56876;BME280;42622;49.972;8.452;2023-04-02T00:37:36;99822.84;;;8.49;100.00
56876;BME280;42622;49.972;8.452;2023-04-02T00:40:30;99822.94;;;8.47;100.00
56876;BME280;42622;49.972;8.452;2023-04-02T00:43:01;99816.84;;;8.47;100.00
56876;BME280;42622;49.972;8.452;2023-04-02T00:45:37;99821.28;;;8.46;100.00
56876;BME280;42622;49.972;8.452;2023-04-02T00:49:07;99817.88;;;8.44;100.00
56876;BME280;42622;49.972;8.452;2023-04-02T00:51:58;99821.38;;;8.45;100.00
56876;BME280;42622;49.972;8.452;2023-04-02T00:54:38;99824.09;;;8.43;100.00
56876;BME280;42622;49.972;8.452;2023-04-02T00:57:26;99822.44;;;8.42;100.00
56876;BME280;42622;49.972;8.452;2023-04-02T01:00:29;99825.06;;;8.42;100.00
56876;BME280;42622;49.972;8.452;2023-04-02T01:05:48;99826.94;;;8.40;100.00
56876;BME280;42622;49.972;8.452;2023-04-02T01:11:29;99828.88;;;8.38;100.00
56876;BME280;42622;49.972;8.452;2023-04-02T01:20:37;99844.00;;;8.34;100.00
56876;BME280;42622;49.972;8.452;2023-04-02T01:26:22;99840.72;;;8.31;100.00
56876;BME280;42622;49.972;8.452;2023-04-02T01:32:19;99845.16;;;8.30;100.00
56876;BME280;42622;49.972;8.452;2023-04-02T01:34:50;99852.19;;;8.30;100.00
56876;BME280;42622;49.972;8.452;2023-04-02T01:37:53;99849.69;;;8.28;100.00
56876;BME280;42622;49.972;8.452;2023-04-02T01:41:06;99848.84;;;8.28;100.00
56876;BME280;42622;49.972;8.452;2023-04-02T01:44:02;99864.84;;;8.25;100.00
56876;BME280;42622;49.972;8.452;2023-04-02T01:46:39;99862.28;;;8.23;100.00
56876;BME280;42622;49.972;8.452;2023-04-02T01:49:17;99864.09;;;8.23;100.00
56876;BME280;42622;49.972;8.452;2023-04-02T01:51:53;99878.19;;;8.22;100.00
56876;BME280;42622;49.972;8.452;2023-04-02T01:54:23;99872.41;;;8.17;100.00
56876;BME280;42622;49.972;8.452;2023-04-02T01:56:50;99878.53;;;8.17;100.00
56876;BME280;42622;49.972;8.452;2023-04-02T01:59:20;99877.75;;;8.15;100.00
56876;BME280;42622;49.972;8.452;2023-04-02T02:01:53;99888.41;;;8.13;100.00
56876;BME280;42622;49.972;8.452;2023-04-02T02:04:23;99889.25;;;8.14;100.00
56876;BME280;42622;49.972;8.452;2023-04-02T02:06:50;99890.09;;;8.14;100.00
56876;BME280;42622;49.972;8.452;2023-04-02T02:09:28;99890.28;;;8.11;100.00
56876;BME280;42622;49.972;8.452;2023-04-02T02:11:58;99895.56;;;8.11;100.00
56876;BME280;42622;49.972;8.452;2023-04-02T02:14:31;99892.19;;;8.09;100.00
56876;BME280;42622;49.972;8.452;2023-04-02T02:17:01;99895.75;;;8.08;100.00
56876;BME280;42622;49.972;8.452;2023-04-02T02:19:44;99892.28;;;8.08;100.00
56876;BME280;42622;49.972;8.452;2023-04-02T02:22:31;99901.97;;;8.07;100.00
56876;BME280;42622;49.972;8.452;2023-04-02T02:25:05;99900.28;;;8.06;100.00
56876;BME280;42622;49.972;8.452;2023-04-02T02:28:02;99897.66;;;8.06;100.00
56876;BME280;42622;49.972;8.452;2023-04-02T02:30:49;99903.66;;;8.08;100.00
56876;BME280;42622;49.972;8.452;2023-04-02T02:39:21;99916.63;;;8.11;100.00
56876;BME280;42622;49.972;8.452;2023-04-02T02:44:36;99929.06;;;8.09;100.00
56876;BME280;42622;49.972;8.452;2023-04-02T02:47:27;99931.69;;;8.09;100.00
56876;BME280;42622;49.972;8.452;2023-04-02T02:50:20;99936.19;;;8.07;100.00
56876;BME280;42622;49.972;8.452;2023-04-02T02:52:57;99937.16;;;8.06;100.00
56876;BME280;42622;49.972;8.452;2023-04-02T02:55:31;99945.88;;;8.07;100.00
56876;BME280;42622;49.972;8.452;2023-04-02T02:58:27;99946.72;;;8.07;100.00
56876;BME280;42622;49.972;8.452;2023-04-02T03:00:58;99939.78;;;8.06;100.00
56876;BME280;42622;49.972;8.452;2023-04-02T03:03:32;99951.16;;;8.07;100.00
56876;BME280;42622;49.972;8.452;2023-04-02T03:06:14;99946.72;;;8.07;100.00
56876;BME280;42622;49.972;8.452;2023-04-02T03:09:14;99956.28;;;8.08;100.00
56876;BME280;42622;49.972;8.452;2023-04-02T03:15:34;99964.38;;;8.05;100.00
56876;BME280;42622;49.972;8.452;2023-04-02T03:18:32;99959.34;;;8.02;100.00
56876;BME280;42622;49.972;8.452;2023-04-02T03:21:38;99965.53;;;8.01;100.00
56876;BME280;42622;49.972;8.452;2023-04-02T03:24:37;99966.59;;;7.99;100.00
56876;BME280;42622;49.972;8.452;2023-04-02T03:27:36;99973.84;;;7.95;100.00
56876;BME280;42622;49.972;8.452;2023-04-02T03:33:26;99990.03;;;7.89;100.00
56876;BME280;42622;49.972;8.452;2023-04-02T03:36:21;99990.22;;;7.86;100.00
56876;BME280;42622;49.972;8.452;2023-04-02T03:39:16;99999.06;;;7.85;100.00
56876;BME280;42622;49.972;8.452;2023-04-02T03:45:25;100005.44;;;7.81;100.00
56876;BME280;42622;49.972;8.452;2023-04-02T03:48:30;100010.81;;;7.79;100.00
56876;BME280;42622;49.972;8.452;2023-04-02T03:51:26;100010.03;;;7.77;100.00
56876;BME280;42622;49.972;8.452;2023-04-02T03:53:58;100018.88;;;7.76;100.00
56876;BME280;42622;49.972;8.452;2023-04-02T03:56:31;100013.72;;;7.75;100.00
56876;BME280;42622;49.972;8.452;2023-04-02T03:59:39;100025.94;;;7.76;100.00
56876;BME280;42622;49.972;8.452;2023-04-02T04:02:40;100024.25;;;7.75;100.00
56876;BME280;42622;49.972;8.452;2023-04-02T04:05:50;100031.31;;;7.74;100.00
56876;BME280;42622;49.972;8.452;2023-04-02T04:08:33;100040.22;;;7.72;100.00
56876;BME280;42622;49.972;8.452;2023-04-02T04:11:15;100042.09;;;7.70;100.00
56876;BME280;42622;49.972;8.452;2023-04-02T04:14:01;100037.03;;;7.66;100.00
56876;BME280;42622;49.972;8.452;2023-04-02T04:20:28;100047.94;;;7.60;100.00
56876;BME280;42622;49.972;8.452;2023-04-02T04:23:27;100055.00;;;7.60;100.00
56876;BME280;42622;49.972;8.452;2023-04-02T04:26:20;100055.06;;;7.58;100.00
56876;BME280;42622;49.972;8.452;2023-04-02T04:32:52;100071.22;;;7.52;100.00
56876;BME280;42622;49.972;8.452;2023-04-02T04:35:33;100072.16;;;7.51;100.00
56876;BME280;42622;49.972;8.452;2023-04-02T04:38:34;100073.13;;;7.50;100.00
56876;BME280;42622;49.972;8.452;2023-04-02T04:41:20;100076.69;;;7.49;100.00
56876;BME280;42622;49.972;8.452;2023-04-02T04:44:03;100081.09;;;7.49;100.00
56876;BME280;42622;49.972;8.452;2023-04-02T04:46:46;100093.31;;;7.50;100.00
56876;BME280;42622;49.972;8.452;2023-04-02T04:49:40;100094.91;;;7.52;100.00
56876;BME280;42622;49.972;8.452;2023-04-02T04:52:27;100099.91;;;7.57;100.00
56876;BME280;42622;49.972;8.452;2023-04-02T04:54:55;100103.28;;;7.59;100.00
56876;BME280;42622;49.972;8.452;2023-04-02T04:57:36;100106.66;;;7.61;100.00
56876;BME280;42622;49.972;8.452;2023-04-02T05:00:41;100105.63;;;7.63;100.00
56876;BME280;42622;49.972;8.452;2023-04-02T05:03:38;100112.59;;;7.64;100.00
56876;BME280;42622;49.972;8.452;2023-04-02T05:09:39;100116.16;;;7.63;100.00
56876;BME280;42622;49.972;8.452;2023-04-02T05:15:19;100131.00;;;7.64;100.00
56876;BME280;42622;49.972;8.452;2023-04-02T05:18:37;100131.00;;;7.64;100.00
56876;BME280;42622;49.972;8.452;2023-04-02T05:21:35;100134.47;;;7.65;100.00
56876;BME280;42622;49.972;8.452;2023-04-02T05:24:39;100147.53;;;7.66;100.00
56876;BME280;42622;49.972;8.452;2023-04-02T05:31:21;100156.00;;;7.72;100.00
56876;BME280;42622;49.972;8.452;2023-04-02T05:33:53;100159.38;;;7.74;100.00
56876;BME280;42622;49.972;8.452;2023-04-02T05:36:29;100159.19;;;7.77;100.00
56876;BME280;42622;49.972;8.452;2023-04-02T05:38:57;100158.16;;;7.79;100.00
56876;BME280;42622;49.972;8.452;2023-04-02T05:41:31;100169.34;;;7.83;100.00
56876;BME280;42622;49.972;8.452;2023-04-02T05:47:13;100174.25;;;7.89;100.00
56876;BME280;42622;49.972;8.452;2023-04-02T05:52:41;100180.66;;;7.99;100.00
56876;BME280;42622;49.972;8.452;2023-04-02T05:57:57;100178.38;;;8.07;100.00
56876;BME280;42622;49.972;8.452;2023-04-02T06:00:53;100187.59;;;8.14;100.00
56876;BME280;42622;49.972;8.452;2023-04-02T06:07:16;100204.53;;;8.39;100.00
56876;BME280;42622;49.972;8.452;2023-04-02T06:10:06;100207.53;;;8.47;100.00
56876;BME280;42622;49.972;8.452;2023-04-02T06:12:52;100211.28;;;8.57;100.00
56876;BME280;42622;49.972;8.452;2023-04-02T06:15:23;100215.22;;;8.65;100.00
56876;BME280;42622;49.972;8.452;2023-04-02T06:18:16;100222.44;;;8.75;100.00
56876;BME280;42622;49.972;8.452;2023-04-02T06:20:48;100238.22;;;8.90;100.00
56876;BME280;42622;49.972;8.452;2023-04-02T06:23:37;100233.88;;;9.03;100.00
56876;BME280;42622;49.972;8.452;2023-04-02T06:26:25;100233.31;;;9.25;100.00
56876;BME280;42622;49.972;8.452;2023-04-02T06:32:11;100244.75;;;9.78;100.00
56876;BME280;42622;49.972;8.452;2023-04-02T06:34:41;100254.50;;;9.90;100.00
56876;BME280;42622;49.972;8.452;2023-04-02T06:40:00;100259.41;;;9.82;100.00
56876;BME280;42622;49.972;8.452;2023-04-02T06:42:38;100269.66;;;9.74;100.00
56876;BME280;42622;49.972;8.452;2023-04-02T06:45:22;100270.69;;;9.71;100.00
56876;BME280;42622;49.972;8.452;2023-04-02T06:48:00;100271.78;;;9.69;100.00
56876;BME280;42622;49.972;8.452;2023-04-02T06:50:43;100282.84;;;9.61;100.00
56876;BME280;42622;49.972;8.452;2023-04-02T06:53:28;100292.00;;;9.55;100.00
56876;BME280;42622;49.972;8.452;2023-04-02T06:56:40;100296.00;;;9.48;100.00
56876;BME280;42622;49.972;8.452;2023-04-02T06:59:12;100301.25;;;9.48;100.00
56876;BME280;42622;49.972;8.452;2023-04-02T07:01:51;100307.97;;;9.40;100.00
56876;BME280;42622;49.972;8.452;2023-04-02T07:04:37;100312.59;;;9.36;100.00
56876;BME280;42622;49.972;8.452;2023-04-02T07:07:04;100319.97;;;9.31;100.00
56876;BME280;42622;49.972;8.452;2023-04-02T07:09:30;100324.72;;;9.26;100.00
56876;BME280;42622;49.972;8.452;2023-04-02T07:11:57;100330.38;;;9.20;100.00
56876;BME280;42622;49.972;8.452;2023-04-02T07:14:22;100347.16;;;9.04;100.00
56876;BME280;42622;49.972;8.452;2023-04-02T07:16:48;100342.13;;;8.73;100.00
56876;BME280;42622;49.972;8.452;2023-04-02T07:19:20;100354.94;;;8.34;100.00
56876;BME280;42622;49.972;8.452;2023-04-02T07:21:48;100371.69;;;8.03;100.00
56876;BME280;42622;49.972;8.452;2023-04-02T07:24:16;100382.09;;;7.75;100.00
56876;BME280;42622;49.972;8.452;2023-04-02T07:26:44;100378.72;;;7.57;100.00
56876;BME280;42622;49.972;8.452;2023-04-02T07:29:15;100388.66;;;7.36;100.00
56876;BME280;42622;49.972;8.452;2023-04-02T07:31:42;100388.56;;;7.22;100.00
56876;BME280;42622;49.972;8.452;2023-04-02T07:34:09;100399.56;;;7.12;100.00
56876;BME280;42622;49.972;8.452;2023-04-02T07:36:35;100405.00;;;7.09;100.00
56876;BME280;42622;49.972;8.452;2023-04-02T07:39:01;100413.97;;;7.05;100.00
56876;BME280;42622;49.972;8.452;2023-04-02T07:41:27;100414.44;;;6.96;100.00
56876;BME280;42622;49.972;8.452;2023-04-02T07:43:54;100417.06;;;6.96;100.00
56876;BME280;42622;49.972;8.452;2023-04-02T07:46:23;100417.06;;;6.96;100.00
56876;BME280;42622;49.972;8.452;2023-04-02T07:48:50;100421.44;;;6.97;100.00
56876;BME280;42622;49.972;8.452;2023-04-02T07:51:22;100436.34;;;6.97;100.00
56876;BME280;42622;49.972;8.452;2023-04-02T07:53:51;100442.44;;;6.97;100.00
56876;BME280;42622;49.972;8.452;2023-04-02T07:56:23;100446.19;;;6.93;100.00
56876;BME280;42622;49.972;8.452;2023-04-02T07:58:50;100443.59;;;6.91;100.00
56876;BME280;42622;49.972;8.452;2023-04-02T08:01:25;100454.06;;;6.93;100.00
56876;BME280;42622;49.972;8.452;2023-04-02T08:03:54;100461.25;;;6.89;100.00
56876;BME280;42622;49.972;8.452;2023-04-02T08:06:23;100462.25;;;6.87;100.00
56876;BME280;42622;49.972;8.452;2023-04-02T08:08:50;100474.47;;;6.88;100.00
56876;BME280;42622;49.972;8.452;2023-04-02T08:11:16;100476.34;;;6.86;100.00
56876;BME280;42622;49.972;8.452;2023-04-02T08:13:42;100484.97;;;6.88;100.00
56876;BME280;42622;49.972;8.452;2023-04-02T08:16:09;100492.78;;;6.89;100.00
56876;BME280;42622;49.972;8.452;2023-04-02T08:18:35;100489.47;;;6.86;100.00
56876;BME280;42622;49.972;8.452;2023-04-02T08:21:07;100495.78;;;6.82;100.00
56876;BME280;42622;49.972;8.452;2023-04-02T08:23:35;100506.47;;;6.79;100.00
56876;BME280;42622;49.972;8.452;2023-04-02T08:26:02;100507.88;;;6.68;100.00
56876;BME280;42622;49.972;8.452;2023-04-02T08:28:29;100511.03;;;6.58;100.00
56876;BME280;42622;49.972;8.452;2023-04-02T08:30:57;100518.38;;;6.51;100.00
56876;BME280;42622;49.972;8.452;2023-04-02T08:33:23;100521.84;;;6.52;100.00
56876;BME280;42622;49.972;8.452;2023-04-02T08:35:49;100528.88;;;6.51;100.00
56876;BME280;42622;49.972;8.452;2023-04-02T08:38:19;100532.03;;;6.58;100.00
56876;BME280;42622;49.972;8.452;2023-04-02T08:40:55;100537.47;;;6.72;100.00
56876;BME280;42622;49.972;8.452;2023-04-02T08:47:07;100547.28;;;6.86;100.00
56876;BME280;42622;49.972;8.452;2023-04-02T08:49:58;100557.31;;;6.78;100.00
56876;BME280;42622;49.972;8.452;2023-04-02T08:52:35;100566.56;;;6.67;100.00
56876;BME280;42622;49.972;8.452;2023-04-02T08:55:36;100560.47;;;6.67;100.00
56876;BME280;42622;49.972;8.452;2023-04-02T09:01:18;100575.38;;;6.66;100.00
56876;BME280;42622;49.972;8.452;2023-04-02T09:03:59;100577.84;;;6.69;100.00
56876;BME280;42622;49.972;8.452;2023-04-02T09:06:28;100594.41;;;6.72;100.00
56876;BME280;42622;49.972;8.452;2023-04-02T09:08:56;100590.63;;;6.77;100.00
56876;BME280;42622;49.972;8.452;2023-04-02T09:11:34;100598.91;;;6.87;100.00
56876;BME280;42622;49.972;8.452;2023-04-02T09:14:18;100612.28;;;7.00;100.00
56876;BME280;42622;49.972;8.452;2023-04-02T09:16:54;100606.16;;;6.99;100.00
56876;BME280;42622;49.972;8.452;2023-04-02T09:19:42;100614.75;;;7.03;100.00
56876;BME280;42622;49.972;8.452;2023-04-02T09:22:26;100623.16;;;7.09;100.00
56876;BME280;42622;49.972;8.452;2023-04-02T09:25:00;100629.50;;;7.05;100.00
56876;BME280;42622;49.972;8.452;2023-04-02T09:27:35;100628.75;;;7.03;100.00
56876;BME280;42622;49.972;8.452;2023-04-02T09:33:03;100641.91;;;7.03;100.00
56876;BME280;42622;49.972;8.452;2023-04-02T09:35:55;100643.88;;;6.98;100.00
56876;BME280;42622;49.972;8.452;2023-04-02T09:38:27;100652.22;;;7.06;100.00
56876;BME280;42622;49.972;8.452;2023-04-02T09:41:16;100648.22;;;7.16;100.00
56876;BME280;42622;49.972;8.452;2023-04-02T09:43:46;100654.66;;;7.28;100.00
56876;BME280;42622;49.972;8.452;2023-04-02T09:48:53;100656.25;;;7.48;100.00
56876;BME280;42622;49.972;8.452;2023-04-02T09:51:28;100658.69;;;7.53;100.00
56876;BME280;42622;49.972;8.452;2023-04-02T09:54:14;100672.59;;;7.55;100.00
56876;BME280;42622;49.972;8.452;2023-04-02T09:57:01;100679.78;;;7.51;100.00
56876;BME280;42622;49.972;8.452;2023-04-02T09:59:30;100671.34;;;7.45;100.00
56876;BME280;42622;49.972;8.452;2023-04-02T10:02:00;100680.25;;;7.42;100.00
56876;BME280;42622;49.972;8.452;2023-04-02T10:04:45;100683.94;;;7.38;100.00
56876;BME280;42622;49.972;8.452;2023-04-02T10:07:38;100700.66;;;7.37;100.00
56876;BME280;42622;49.972;8.452;2023-04-02T10:10:30;100706.56;;;7.42;100.00
56876;BME280;42622;49.972;8.452;2023-04-02T10:13:30;100706.38;;;7.45;100.00
56876;BME280;42622;49.972;8.452;2023-04-02T10:16:19;100709.25;;;7.58;100.00
56876;BME280;42622;49.972;8.452;2023-04-02T10:18:56;100718.00;;;7.58;100.00
56876;BME280;42622;49.972;8.452;2023-04-02T10:21:35;100716.31;;;7.57;100.00
56876;BME280;42622;49.972;8.452;2023-04-02T10:24:12;100729.53;;;7.56;100.00
56876;BME280;42622;49.972;8.452;2023-04-02T10:27:06;100730.91;;;7.63;100.00
56876;BME280;42622;49.972;8.452;2023-04-02T10:33:04;100738.38;;;8.05;100.00
56876;BME280;42622;49.972;8.452;2023-04-02T10:36:00;100747.06;;;8.07;100.00
56876;BME280;42622;49.972;8.452;2023-04-02T10:54:48;100779.31;;;8.61;100.00
56876;BME280;42622;49.972;8.452;2023-04-02T10:59:57;100782.94;;;8.92;100.00
56876;BME280;42622;49.972;8.452;2023-04-02T11:08:46;100803.84;;;8.79;100.00
56876;BME280;42622;49.972;8.452;2023-04-02T11:11:20;100818.44;;;8.69;100.00
56876;BME280;42622;49.972;8.452;2023-04-02T11:14:23;100815.75;;;8.71;100.00
56876;BME280;42622;49.972;8.452;2023-04-02T11:16:53;100829.69;;;8.73;100.00
56876;BME280;42622;49.972;8.452;2023-04-02T11:19:33;100826.00;;;8.59;100.00
56876;BME280;42622;49.972;8.452;2023-04-02T11:22:19;100831.84;;;8.49;100.00
56876;BME280;42622;49.972;8.452;2023-04-02T11:24:51;100827.06;;;8.40;100.00
56876;BME280;42622;49.972;8.452;2023-04-02T11:27:33;100832.41;;;8.38;100.00
56876;BME280;42622;49.972;8.452;2023-04-02T11:32:47;100849.81;;;8.23;100.00
56876;BME280;42622;49.972;8.452;2023-04-02T11:41:01;100865.09;;;7.99;100.00
56876;BME280;42622;49.972;8.452;2023-04-02T11:49:56;100881.97;;;7.95;100.00
56876;BME280;42622;49.972;8.452;2023-04-02T11:52:48;100892.28;;;7.81;100.00
56876;BME280;42622;49.972;8.452;2023-04-02T11:55:43;100904.97;;;7.73;100.00
56876;BME280;42622;49.972;8.452;2023-04-02T11:58:53;100896.31;;;7.71;100.00
56876;BME280;42622;49.972;8.452;2023-04-02T12:07:54;100923.34;;;7.55;100.00
56876;BME280;42622;49.972;8.452;2023-04-02T12:10:52;100918.53;;;7.46;100.00
56876;BME280;42622;49.972;8.452;2023-04-02T12:16:07;100919.81;;;7.56;100.00
56876;BME280;42622;49.972;8.452;2023-04-02T12:18:49;100937.16;;;7.60;100.00
56876;BME280;42622;49.972;8.452;2023-04-02T12:21:26;100937.16;;;7.60;100.00
56876;BME280;42622;49.972;8.452;2023-04-02T12:23:58;100937.44;;;7.54;100.00
56876;BME280;42622;49.972;8.452;2023-04-02T12:26:36;100947.69;;;7.60;100.00
56876;BME280;42622;49.972;8.452;2023-04-02T12:29:37;100949.53;;;7.58;100.00
56876;BME280;42622;49.972;8.452;2023-04-02T12:32:26;100949.03;;;7.50;100.00
56876;BME280;42622;49.972;8.452;2023-04-02T12:34:56;100953.63;;;7.45;100.00
56876;BME280;42622;49.972;8.452;2023-04-02T12:37:28;100962.13;;;7.33;100.00
56876;BME280;42622;49.972;8.452;2023-04-02T12:40:12;100961.88;;;7.18;100.00
56876;BME280;42622;49.972;8.452;2023-04-02T12:42:40;100967.28;;;7.15;100.00
56876;BME280;42622;49.972;8.452;2023-04-02T12:45:29;100971.41;;;7.21;100.00
56876;BME280;42622;49.972;8.452;2023-04-02T12:48:04;100974.09;;;7.19;100.00
56876;BME280;42622;49.972;8.452;2023-04-02T12:50:33;100982.25;;;7.13;100.00
56876;BME280;42622;49.972;8.452;2023-04-02T12:52:59;100979.78;;;7.10;100.00
56876;BME280;42622;49.972;8.452;2023-04-02T12:55:26;100967.41;;;7.12;100.00
56876;BME280;42622;49.972;8.452;2023-04-02T12:57:58;100982.84;;;7.20;100.00
56876;BME280;42622;49.972;8.452;2023-04-02T13:05:45;100992.59;;;7.37;100.00
56876;BME280;42622;49.972;8.452;2023-04-02T13:08:25;100992.88;;;7.31;100.00
56876;BME280;42622;49.972;8.452;2023-04-02T13:11:00;101002.69;;;7.27;100.00
56876;BME280;42622;49.972;8.452;2023-04-02T13:13:38;100998.44;;;7.25;100.00
56876;BME280;42622;49.972;8.452;2023-04-02T13:18:38;101015.91;;;7.26;100.00
56876;BME280;42622;49.972;8.452;2023-04-02T13:23:46;101013.41;;;7.23;100.00
56876;BME280;42622;49.972;8.452;2023-04-02T13:29:27;101004.94;;;7.16;100.00
56876;BME280;42622;49.972;8.452;2023-04-02T13:31:59;101009.22;;;7.18;100.00
56876;BME280;42622;49.972;8.452;2023-04-02T13:34:28;101021.16;;;7.26;100.00
56876;BME280;42622;49.972;8.452;2023-04-02T13:36:54;101013.91;;;7.31;100.00
56876;BME280;42622;49.972;8.452;2023-04-02T13:39:23;101022.59;;;7.33;100.00
56876;BME280;42622;49.972;8.452;2023-04-02T13:42:02;101024.16;;;7.18;100.00
56876;BME280;42622;49.972;8.452;2023-04-02T13:44:34;101016.59;;;7.10;100.00
56876;BME280;42622;49.972;8.452;2023-04-02T13:47:02;101027.13;;;7.10;100.00
56876;BME280;42622;49.972;8.452;2023-04-02T13:49:28;101034.34;;;7.05;100.00
56876;BME280;42622;49.972;8.452;2023-04-02T13:52:00;101035.78;;;7.12;100.00
56876;BME280;42622;49.972;8.452;2023-04-02T13:54:49;101038.00;;;7.22;100.00
56876;BME280;42622;49.972;8.452;2023-04-02T13:57:19;101050.94;;;7.26;100.00
56876;BME280;42622;49.972;8.452;2023-04-02T13:59:45;101052.84;;;7.23;100.00
56876;BME280;42622;49.972;8.452;2023-04-02T14:02:17;101056.53;;;7.18;100.00
56876;BME280;42622;49.972;8.452;2023-04-02T14:05:10;101062.06;;;7.12;100.00
56876;BME280;42622;49.972;8.452;2023-04-02T14:13:57;101083.88;;;6.94;100.00
56876;BME280;42622;49.972;8.452;2023-04-02T14:16:56;101082.44;;;6.87;100.00
56876;BME280;42622;49.972;8.452;2023-04-02T14:19:53;101094.03;;;6.81;100.00
56876;BME280;42622;49.972;8.452;2023-04-02T14:22:44;101093.31;;;6.78;100.00
56876;BME280;42622;49.972;8.452;2023-04-02T14:28:53;101099.56;;;6.53;100.00
56876;BME280;42622;49.972;8.452;2023-04-02T14:38:10;101115.81;;;6.41;100.00
56876;BME280;42622;49.972;8.452;2023-04-02T14:41:02;101112.28;;;6.42;100.00
56876;BME280;42622;49.972;8.452;2023-04-02T14:46:30;101130.34;;;6.28;100.00
56876;BME280;42622;49.972;8.452;2023-04-02T14:49:24;101121.69;;;6.26;100.00
56876;BME280;42622;49.972;8.452;2023-04-02T14:52:12;101118.38;;;6.20;100.00
56876;BME280;42622;49.972;8.452;2023-04-02T14:55:03;101129.59;;;6.24;100.00
56876;BME280;42622;49.972;8.452;2023-04-02T14:57:41;101118.25;;;6.23;100.00
56876;BME280;42622;49.972;8.452;2023-04-02T15:03:09;101135.81;;;6.21;100.00
56876;BME280;42622;49.972;8.452;2023-04-02T15:05:59;101148.09;;;6.21;100.00
56876;BME280;42622;49.972;8.452;2023-04-02T15:08:37;101148.28;;;6.16;100.00
56876;BME280;42622;49.972;8.452;2023-04-02T15:11:28;101154.91;;;6.03;100.00
56876;BME280;42622;49.972;8.452;2023-04-02T15:14:20;101150.00;;;5.94;100.00
56876;BME280;42622;49.972;8.452;2023-04-02T15:16:53;101168.56;;;5.88;100.00
56876;BME280;42622;49.972;8.452;2023-04-02T15:19:19;101158.06;;;5.88;100.00
56876;BME280;42622;49.972;8.452;2023-04-02T15:25:09;101163.34;;;5.86;100.00
56876;BME280;42622;49.972;8.452;2023-04-02T15:28:26;101171.38;;;5.83;100.00
56876;BME280;42622;49.972;8.452;2023-04-02T15:31:11;101178.41;;;5.81;100.00
56876;BME280;42622;49.972;8.452;2023-04-02T15:33:51;101185.47;;;5.79;100.00
56876;BME280;42622;49.972;8.452;2023-04-02T15:39:48;101176.25;;;5.69;100.00
56876;BME280;42622;49.972;8.452;2023-04-02T15:42:31;101189.22;;;5.72;100.00
56876;BME280;42622;49.972;8.452;2023-04-02T15:45:28;101195.56;;;5.66;100.00
56876;BME280;42622;49.972;8.452;2023-04-02T15:48:20;101201.84;;;5.62;100.00
56876;BME280;42622;49.972;8.452;2023-04-02T15:52:04;101187.16;;;5.57;100.00
56876;BME280;42622;49.972;8.452;2023-04-02T15:54:38;101203.06;;;5.52;100.00
56876;BME280;42622;49.972;8.452;2023-04-02T15:57:52;101212.56;;;5.55;100.00
56876;BME280;42622;49.972;8.452;2023-04-02T16:01:13;101218.78;;;5.52;100.00
56876;BME280;42622;49.972;8.452;2023-04-02T16:10:37;101233.91;;;5.44;100.00
56876;BME280;42622;49.972;8.452;2023-04-02T16:13:17;101236.44;;;5.47;100.00
56876;BME280;42622;49.972;8.452;2023-04-02T16:16:07;101232.16;;;5.44;100.00
56876;BME280;42622;49.972;8.452;2023-04-02T16:22:04;101249.59;;;5.45;100.00
56876;BME280;42622;49.972;8.452;2023-04-02T16:31:27;101261.66;;;5.24;100.00
56876;BME280;42622;49.972;8.452;2023-04-02T16:41:38;101283.00;;;5.12;100.00
56876;BME280;42622;49.972;8.452;2023-04-02T16:57:02;101307.81;;;5.02;100.00
56876;BME280;42622;49.972;8.452;2023-04-02T17:00:03;101314.00;;;4.98;100.00
56876;BME280;42622;49.972;8.452;2023-04-02T17:06:28;101324.72;;;4.90;100.00
56876;BME280;42622;49.972;8.452;2023-04-02T17:09:44;101334.44;;;4.87;100.00
56876;BME280;42622;49.972;8.452;2023-04-02T17:12:45;101336.28;;;4.85;100.00
56876;BME280;42622;49.972;8.452;2023-04-02T17:15:23;101339.78;;;4.84;100.00
56876;BME280;42622;49.972;8.452;2023-04-02T17:17:58;101353.88;;;4.79;100.00
56876;BME280;42622;49.972;8.452;2023-04-02T17:20:27;101362.63;;;4.78;100.00
56876;BME280;42622;49.972;8.452;2023-04-02T17:22:54;101366.19;;;4.76;100.00
56876;BME280;42622;49.972;8.452;2023-04-02T17:25:29;101362.66;;;4.77;100.00
56876;BME280;42622;49.972;8.452;2023-04-02T17:28:01;101367.09;;;4.75;100.00
56876;BME280;42622;49.972;8.452;2023-04-02T17:30:44;101374.06;;;4.76;100.00
56876;BME280;42622;49.972;8.452;2023-04-02T17:33:17;101384.59;;;4.74;100.00
56876;BME280;42622;49.972;8.452;2023-04-02T17:41:55;101417.81;;;4.72;100.00
56876;BME280;42622;49.972;8.452;2023-04-02T17:51:32;101424.88;;;4.70;100.00
56876;BME280;42622;49.972;8.452;2023-04-02T17:57:54;101438.13;;;4.64;100.00
56876;BME280;42622;49.972;8.452;2023-04-02T18:01:05;101445.13;;;4.64;100.00
56876;BME280;42622;49.972;8.452;2023-04-02T18:03:50;101434.75;;;4.59;100.00